KPRC/PRC METAR and TAF weather

Enter ICAO airport designator
Station Type Date Time Source
KPRC METAR 2019/08/18 18:53 UTC NOAA

KPRC 181853Z 21008KT 10SM CLR 32/M06 A3015 RMK AO2 SLP113 T03171061


Station Type Date Time Source
KPRC Decoded METAR 2019/08/18 18:53 UTC NOAA

Station name not available
Aug 18, 2019 - 02:53 PM EDT / 2019.08.18 1853 UTC
Wind: from the SSW (210 degrees) at 9 MPH (8 KT):0
Visibility: 10 mile(s):0
Sky conditions: clear
Temperature: 89.1 F (31.7 C)
Dew Point: 21.0 F (-6.1 C)
Relative Humidity: 8%
Pressure (altimeter): 30.15 in. Hg (1020 hPa)
ob: KPRC 181853Z 21008KT 10SM CLR 32/M06 A3015 RMK AO2 SLP113 T03171061
cycle: 19

Station Type Date Time Source
KPRC TAF 2019/08/18 18:30 UTC NOAA

TAF KPRC 181729Z 1818/1918 16007KT P6SM FEW250
TEMPO 1819/1823 20010G17KT

Example: see airport list